createdAt,value
2022-10-06T00:04:00.443Z,2.67
2022-10-06T00:08:22.623Z,2.95
2022-10-06T00:12:49.363Z,2.97
2022-10-06T00:17:11.784Z,3.08
2022-10-06T00:21:34.402Z,2.65
2022-10-06T00:25:57.202Z,2.58
2022-10-06T00:30:25.563Z,2.88
2022-10-06T00:34:47.704Z,2.65
2022-10-06T00:39:10.263Z,2.80
2022-10-06T00:43:51.163Z,2.88
2022-10-06T00:48:24.163Z,3.00
2022-10-06T00:52:46.323Z,2.67
2022-10-06T00:57:09.443Z,2.78
2022-10-06T01:01:32.803Z,2.95
2022-10-06T01:05:56.483Z,2.90
2022-10-06T01:10:18.723Z,3.13
2022-10-06T01:14:41.743Z,2.72
2022-10-06T01:19:10.903Z,2.72
2022-10-06T01:23:35.363Z,2.92
2022-10-06T01:27:58.795Z,3.00
2022-10-06T01:32:25.083Z,2.78
2022-10-06T01:36:48.942Z,2.88
2022-10-06T01:41:11.463Z,3.10
2022-10-06T01:45:33.865Z,2.85
2022-10-06T01:49:56.443Z,2.90
2022-10-06T01:54:19.403Z,3.28
2022-10-06T01:58:41.885Z,3.50
2022-10-06T02:03:05.522Z,2.60
2022-10-06T02:07:27.805Z,2.75
2022-10-06T02:11:50.903Z,2.75
2022-10-06T02:16:14.411Z,3.00
2022-10-06T02:20:38.623Z,3.13
2022-10-06T02:25:01.143Z,2.97
2022-10-06T02:29:23.562Z,3.00
2022-10-06T02:33:46.343Z,3.13
2022-10-06T02:38:11.278Z,3.13
2022-10-06T02:42:37.762Z,3.20
2022-10-06T02:47:00.954Z,3.15
2022-10-06T02:51:23.877Z,2.90
2022-10-06T02:55:46.740Z,3.17
2022-10-06T03:00:11.342Z,3.40
2022-10-06T03:04:33.844Z,3.17
2022-10-06T03:09:03.363Z,3.20
2022-10-06T03:13:27.875Z,3.05
2022-10-06T03:17:50.716Z,2.90
2022-10-06T03:22:13.323Z,3.42
2022-10-06T03:26:48.524Z,2.78
2022-10-06T03:31:13.737Z,3.30
2022-10-06T03:35:36.463Z,3.03
2022-10-06T03:39:59.103Z,3.20
2022-10-06T03:44:23.005Z,3.22
2022-10-06T03:48:45.344Z,3.00
2022-10-06T03:53:07.889Z,3.50
2022-10-06T03:57:30.508Z,3.38
2022-10-06T04:01:53.714Z,3.65
2022-10-06T04:06:21.742Z,5.45
2022-10-06T04:10:44.303Z,4.30
2022-10-06T04:15:07.443Z,3.40
2022-10-06T04:19:30.064Z,3.50
2022-10-06T04:23:55.184Z,3.55
2022-10-06T04:28:17.399Z,2.83
2022-10-06T04:32:39.955Z,3.20
2022-10-06T04:37:02.727Z,2.97
2022-10-06T04:41:29.093Z,3.38
2022-10-06T04:45:59.541Z,3.10
2022-10-06T04:50:23.424Z,3.13
2022-10-06T04:55:07.134Z,3.47
2022-10-06T04:59:49.424Z,3.45
2022-10-06T05:04:13.148Z,3.40
2022-10-06T05:08:35.966Z,2.85
2022-10-06T05:12:58.480Z,3.08
2022-10-06T05:17:21.083Z,3.33
2022-10-06T05:21:43.643Z,3.10
2022-10-06T05:26:17.560Z,3.08
2022-10-06T05:30:40.544Z,3.70
2022-10-06T05:35:03.043Z,3.28
2022-10-06T05:39:25.495Z,3.67
2022-10-06T05:43:53.403Z,3.45
2022-10-06T05:48:15.695Z,3.08
2022-10-06T05:52:38.823Z,3.67
2022-10-06T05:57:01.908Z,3.60
2022-10-06T06:01:35.777Z,2.80
2022-10-06T06:06:03.124Z,3.90
2022-10-06T06:10:25.743Z,3.10
2022-10-06T06:15:07.195Z,3.55
2022-10-06T06:19:52.303Z,3.05
2022-10-06T06:24:14.822Z,3.83
2022-10-06T06:28:37.974Z,2.58
2022-10-06T06:33:00.605Z,1.83
2022-10-06T06:37:24.069Z,1.90
2022-10-06T06:41:47.364Z,1.52
2022-10-06T06:46:30.998Z,1.30
2022-10-06T06:51:01.342Z,1.25
2022-10-06T06:55:26.819Z,1.63
2022-10-06T06:59:49.187Z,1.30
2022-10-06T07:04:16.511Z,1.15
2022-10-06T07:08:46.083Z,1.25
2022-10-06T07:13:08.683Z,0.90
2022-10-06T07:17:49.776Z,1.60
2022-10-06T07:22:34.742Z,1.90
2022-10-06T07:26:59.515Z,1.40
2022-10-06T07:31:21.893Z,1.42
2022-10-06T07:35:44.463Z,1.15
2022-10-06T07:40:10.124Z,1.45
2022-10-06T07:44:32.935Z,1.70
2022-10-06T07:48:55.404Z,1.20
2022-10-06T07:53:20.983Z,1.02
2022-10-06T07:57:51.204Z,1.83
2022-10-06T08:02:15.702Z,1.63
2022-10-06T08:06:38.823Z,1.30
2022-10-06T08:11:01.874Z,1.30
2022-10-06T08:15:24.684Z,0.82
2022-10-06T08:19:47.904Z,1.30
2022-10-06T08:24:11.243Z,1.20
2022-10-06T08:28:35.619Z,0.90
2022-10-06T08:32:58.682Z,1.35
2022-10-06T08:37:24.101Z,1.52
2022-10-06T08:41:51.462Z,1.27
2022-10-06T08:46:14.843Z,1.65
2022-10-06T08:51:04.143Z,1.45
2022-10-06T08:55:42.462Z,1.70
2022-10-06T09:00:19.638Z,1.40
2022-10-06T09:04:44.363Z,1.73
2022-10-06T09:09:25.536Z,1.55
2022-10-06T09:14:27.122Z,1.40
2022-10-06T09:19:08.727Z,1.48
2022-10-06T09:23:50.472Z,1.30
2022-10-06T09:28:16.843Z,1.65
2022-10-06T09:32:53.860Z,2.15
2022-10-06T09:37:16.446Z,2.10
2022-10-06T09:41:43.435Z,1.52
2022-10-06T09:46:36.243Z,2.13
2022-10-06T09:51:29.402Z,1.52
2022-10-06T09:55:55.066Z,1.73
2022-10-06T10:00:49.003Z,2.00
2022-10-06T10:05:22.694Z,1.67
2022-10-06T10:09:45.282Z,1.80
2022-10-06T10:14:20.624Z,1.90
2022-10-06T10:18:48.444Z,1.60
2022-10-06T10:23:36.624Z,1.70
2022-10-06T10:28:18.399Z,1.30
2022-10-06T10:33:04.824Z,1.67
2022-10-06T10:37:55.131Z,1.45
2022-10-06T10:42:58.963Z,1.77
2022-10-06T10:47:42.062Z,1.77
2022-10-06T10:52:21.863Z,2.20
2022-10-06T10:56:49.367Z,1.80
2022-10-06T11:01:48.326Z,1.85
2022-10-06T11:06:41.383Z,1.98
2022-10-06T11:11:12.663Z,1.42
2022-10-06T11:15:51.409Z,1.95
2022-10-06T11:20:44.695Z,1.80
2022-10-06T11:25:37.085Z,1.70
2022-10-06T11:30:15.224Z,2.38
2022-10-06T11:34:37.595Z,2.13
2022-10-06T11:39:33.572Z,2.28
2022-10-06T11:45:14.146Z,1.60
2022-10-06T11:49:58.862Z,1.60
2022-10-06T11:54:40.063Z,1.70
2022-10-06T11:59:13.024Z,1.33
2022-10-06T12:03:46.883Z,1.75
2022-10-06T12:08:08.928Z,1.75
2022-10-06T12:12:31.304Z,1.60
2022-10-06T12:17:19.329Z,1.70
2022-10-06T12:22:18.921Z,1.98
2022-10-06T12:27:23.361Z,2.20
2022-10-06T12:32:20.263Z,1.90
2022-10-06T12:36:45.057Z,1.60
2022-10-06T12:41:14.883Z,1.73
2022-10-06T12:45:45.826Z,2.28
2022-10-06T12:50:26.503Z,2.30
2022-10-06T12:55:33.436Z,2.17
2022-10-06T12:59:56.143Z,1.40
2022-10-06T13:04:41.062Z,2.08
2022-10-06T13:09:14.574Z,1.98
2022-10-06T13:13:45.762Z,1.95
2022-10-06T13:18:17.261Z,1.63
2022-10-06T13:22:39.462Z,1.88
2022-10-06T13:27:03.296Z,2.20
2022-10-06T13:31:31.810Z,1.58
2022-10-06T13:35:55.489Z,2.17
2022-10-06T13:40:44.173Z,2.00
2022-10-06T13:45:15.523Z,2.00
2022-10-06T13:50:18.864Z,1.75
2022-10-06T13:54:58.366Z,1.73
2022-10-06T13:59:29.844Z,2.45
2022-10-06T14:04:18.623Z,2.20
2022-10-06T14:08:41.384Z,1.63
2022-10-06T14:13:10.601Z,2.47
2022-10-06T14:17:33.044Z,1.85
2022-10-06T14:21:55.642Z,2.30
2022-10-06T14:26:24.442Z,1.38
2022-10-06T14:30:47.385Z,1.90
2022-10-06T14:35:12.603Z,1.58
2022-10-06T14:39:35.070Z,1.88
2022-10-06T14:44:05.885Z,1.70
2022-10-06T14:48:29.219Z,2.47
2022-10-06T14:52:51.463Z,1.70
2022-10-06T14:57:13.623Z,2.20
2022-10-06T15:01:38.822Z,2.50
2022-10-06T15:06:28.967Z,1.77
2022-10-06T15:10:54.583Z,1.83
2022-10-06T15:15:17.474Z,1.85
2022-10-06T15:19:40.685Z,1.70
2022-10-06T15:24:05.324Z,1.90
2022-10-06T15:28:46.109Z,1.90
2022-10-06T15:33:08.437Z,2.33
2022-10-06T15:37:31.231Z,2.47
2022-10-06T15:41:54.485Z,2.05
2022-10-06T15:46:16.902Z,1.55
2022-10-06T15:50:39.802Z,2.40
2022-10-06T15:55:02.099Z,2.30
2022-10-06T15:59:26.224Z,2.05
2022-10-06T16:03:48.763Z,3.05
2022-10-06T16:08:10.852Z,2.03
2022-10-06T16:12:33.744Z,2.08
2022-10-06T16:17:02.218Z,2.00
2022-10-06T16:21:25.059Z,2.63
2022-10-06T16:25:47.644Z,2.58
2022-10-06T16:30:10.643Z,2.10
2022-10-06T16:34:33.403Z,2.15
2022-10-06T16:38:57.243Z,2.10
2022-10-06T16:43:19.663Z,4.30
2022-10-06T16:47:44.126Z,2.70
2022-10-06T16:52:06.805Z,4.30
2022-10-06T16:56:38.650Z,3.03
2022-10-06T17:01:00.989Z,3.50
2022-10-06T17:05:24.300Z,2.85
2022-10-06T17:10:01.810Z,2.70
2022-10-06T17:14:31.410Z,2.60
2022-10-06T17:18:56.103Z,3.38
2022-10-06T17:23:18.374Z,3.22
2022-10-06T17:27:42.154Z,3.55
2022-10-06T17:32:04.854Z,1.95
2022-10-06T17:36:31.543Z,2.70
2022-10-06T17:40:54.023Z,2.90
2022-10-06T17:45:21.062Z,3.08
2022-10-06T17:49:44.524Z,2.80
2022-10-06T17:54:13.074Z,2.90
2022-10-06T17:58:37.821Z,3.20
2022-10-06T18:03:00.515Z,3.60
2022-10-06T18:07:22.983Z,3.67
2022-10-06T18:11:48.755Z,4.00
2022-10-06T18:16:17.014Z,3.90
2022-10-06T18:20:41.512Z,3.75
2022-10-06T18:25:04.683Z,3.88
2022-10-06T18:29:31.383Z,4.53
2022-10-06T18:38:45.211Z,3.97
2022-10-06T18:43:07.572Z,5.00
2022-10-06T18:47:48.563Z,4.38
2022-10-06T18:52:11.551Z,3.92
2022-10-06T18:56:36.585Z,4.55
2022-10-06T19:01:05.228Z,4.82
2022-10-06T19:05:27.719Z,4.82
2022-10-06T19:09:50.455Z,4.85
2022-10-06T19:14:15.963Z,5.43
2022-10-06T19:18:39.804Z,5.20
2022-10-06T19:23:02.063Z,3.85
2022-10-06T19:27:25.711Z,5.15
2022-10-06T19:31:48.572Z,5.82
2022-10-06T19:36:10.759Z,4.88
2022-10-06T19:40:32.903Z,7.45
2022-10-06T19:44:55.259Z,6.25
2022-10-06T19:49:18.163Z,6.35
2022-10-06T19:53:41.494Z,6.47
2022-10-06T19:58:04.263Z,6.25
2022-10-06T20:02:27.445Z,5.75
2022-10-06T20:06:52.138Z,7.38
2022-10-06T20:11:21.864Z,6.63
2022-10-06T20:15:44.169Z,6.32
2022-10-06T20:20:08.591Z,5.35
2022-10-06T20:24:32.063Z,5.57
2022-10-06T20:28:54.664Z,6.22
2022-10-06T20:33:17.583Z,5.60
2022-10-06T20:37:42.328Z,9.38
2022-10-06T20:42:15.026Z,10.23
2022-10-06T20:46:39.889Z,10.93
2022-10-06T20:51:09.043Z,10.30
2022-10-06T20:55:31.603Z,10.43
2022-10-06T20:59:54.184Z,9.43
2022-10-06T21:04:16.838Z,10.20
2022-10-06T21:08:39.515Z,10.13
2022-10-06T21:13:02.155Z,9.55
2022-10-06T21:17:25.016Z,9.00
2022-10-06T21:21:54.055Z,8.20
2022-10-06T21:26:19.955Z,8.07
2022-10-06T21:30:44.594Z,8.77
2022-10-06T21:35:08.375Z,8.85
2022-10-06T21:39:30.723Z,7.22
2022-10-06T21:43:55.735Z,7.75
2022-10-06T21:48:21.636Z,7.30
2022-10-06T21:52:43.922Z,8.60
2022-10-06T21:57:08.443Z,9.10
2022-10-06T22:01:34.153Z,8.48
2022-10-06T22:05:56.596Z,8.27
2022-10-06T22:10:19.394Z,9.25
2022-10-06T22:14:42.235Z,8.38
2022-10-06T22:19:07.775Z,9.05
2022-10-06T22:23:30.537Z,9.27
2022-10-06T22:27:53.296Z,8.73
2022-10-06T22:32:15.695Z,8.77
2022-10-06T22:36:38.655Z,7.28
2022-10-06T22:41:02.395Z,9.65
2022-10-06T22:45:25.174Z,9.25
2022-10-06T22:49:47.935Z,9.18
2022-10-06T22:54:19.355Z,10.05
2022-10-06T22:58:43.393Z,9.80
2022-10-06T23:03:06.573Z,9.80
2022-10-06T23:07:29.157Z,10.30
2022-10-06T23:11:51.874Z,9.40
2022-10-06T23:16:17.105Z,9.82
2022-10-06T23:20:40.234Z,9.57
2022-10-06T23:25:02.974Z,10.25
2022-10-06T23:29:25.454Z,8.90
2022-10-06T23:33:48.018Z,7.57
2022-10-06T23:38:10.794Z,8.27
2022-10-06T23:42:34.090Z,7.43
2022-10-06T23:46:57.010Z,7.72
2022-10-06T23:51:19.413Z,7.38
2022-10-06T23:55:42.373Z,8.82
